Terminal Aerodrome Forecast
Issued by NWS Upton, NY

Home | Current Version | Previous Version | Text Only | Print | Product List | Glossary On
Versions: 1 2 3 4 5 6 7 8 9 10 11 12 13 14 15 16 17 18 19 20 21 22 23 24 25 26 27 28 29 30
000
FTUS41 KOKX 270837 AAB
TAFLGA
TAF AMD
KLGA 270837Z 2709/2806 23010KT 5SM -SHRA BR BKN010 OVC020
     FM271100 25009KT P6SM BKN012 OVC020
     FM271400 28008KT P6SM SCT015 BKN250
     FM272000 21010KT P6SM SCT030 BKN250
     FM280400 02008KT P6SM FEW035 SCT250=

USA.gov is the U.S. government's official web portal to all federal, state and local government web resources and services.